Terminal Aerodrome Forecast
Issued by NWS Shreveport, LA

Home | Current Version | Previous Version | Text Only | Print | Product List | Glossary On
Versions: 1 2 3 4 5 6 7 8 9 10 11 12 13 14 15 16 17 18 19 20 21 22 23 24
000
FTUS44 KSHV 280957 AAA
TAFMLU
TAF AMD
KMLU 280957Z 2810/2906 VRB03KT P6SM VCTS OVC020CB
      TEMPO 2810/2814 5SM -SHRA BR OVC020
     FM281400 VRB06KT P6SM VCTS SCT040CB BKN140 BKN250
      TEMPO 2814/2818 5SM -TSRA BR BKN035CB
     FM281800 VRB06KT P6SM VCTS BKN040CB BKN120 BKN250
      TEMPO 2818/2822 5SM -TSRA BR BKN035CB
     FM290200 VRB04KT P6SM SCT060 BKN150 BKN250=

USA.gov is the U.S. government's official web portal to all federal, state and local government web resources and services.